Latest Weather Observations for Roxby Downs

IDS60801

Issued at 8:31 pm CDT Sunday 24 January 2021 (issued every 10 minutes, with the page automatically refreshed every 10 minutes)

About weather observations | Map of weather stations | Latest weather observations for SA | Other Formats
Station Details ID: 016096 Name: OLYMPIC DAM AERODROME Lat: -30.49 Lon: 136.87 Height: 99.21 m
Data from the previous 72 hours. | See also: Recent months at Roxby Downs
Date/Time
CDT
Temp
°C
App
Temp
°C
Dew
Point
°C
Rel
Hum
%
Delta-T
°C
Wind Press
QNH
hPa
Press
MSL
hPa
Rain since
9am
mm
Dir  Spd
km/h
Gust
km/h
Spd
kts
Gust
kts
24/08:30pm 36.8 33.3 1.5 11 18.2 ESE 9 11 5 6 1000.0 999.4 0.0
24/08:00pm 37.7 33.8 0.9 10 18.8 ESE 11 13 6 7 999.9 999.3 0.0
24/07:30pm 39.0 36.3 0.4 9 19.8 ESE 4 11 2 6 1000.0 999.4 0.0
24/07:00pm 39.3 36.1 0.6 9 19.9 SSE 7 9 4 5 1000.0 999.4 0.0
24/06:30pm 38.9 35.3 0.3 9 19.8 S 9 13 5 7 1000.1 999.5 0.0
24/06:00pm 39.4 35.8 0.7 9 20.0 WNW 9 11 5 6 1000.2 999.6 0.0
24/05:30pm 39.6 36.4 -0.8 8 20.5 S 6 9 3 5 1000.2 999.6 0.0
24/05:00pm 39.6 36.0 0.9 9 20.0 SSW 9 19 5 10 1000.5 999.9 0.0
24/04:30pm 39.8 35.5 1.0 9 20.2 SW 13 20 7 11 1001.0 1000.4 0.0
24/04:01pm 39.7 32.5 0.9 9 20.1 NW 28 46 15 25 1001.5 1000.9 0.0
24/04:00pm 39.6 32.1 0.9 9 20.0 NW 30 46 16 25 1001.5 1000.9 0.0
24/03:53pm 40.0 34.3 -0.5 8 20.5 N 19 46 10 25 1001.4 1000.8 0.0
24/03:30pm 40.7 37.3 1.7 9 20.6 NE 9 15 5 8 1001.7 1001.1 0.0
24/03:18pm 40.4 35.8 1.4 9 20.4 NE 15 20 8 11 1001.8 1001.2 0.0
24/03:00pm 40.7 35.1 0.0 8 21.0 NE 19 26 10 14 1002.0 1001.4 0.0
24/02:30pm 41.3 36.0 2.1 9 20.9 NE 19 33 10 18 1002.3 1001.7 0.0
24/02:00pm 41.7 36.2 0.8 8 21.4 NE 19 30 10 16 1002.4 1001.8 0.0
24/01:30pm 41.0 35.1 1.9 9 20.8 N 22 32 12 17 1003.1 1002.4 0.0
24/01:00pm 40.6 35.1 1.6 9 20.5 NNE 20 32 11 17 1003.6 1002.9 0.0
24/12:30pm 40.7 34.0 1.7 9 20.6 NNE 26 35 14 19 1004.0 1003.3 0.0
24/12:00pm 40.4 33.9 2.9 10 20.1 NE 26 33 14 18 1004.1 1003.4 0.0
24/11:30am 40.1 34.5 5.3 12 19.3 NE 24 37 13 20 1004.3 1003.6 0.0
24/11:12am 39.6 33.8 6.1 13 18.7 NE 26 33 14 18 1004.5 1003.8 0.0
24/11:00am 38.4 33.0 6.2 14 17.9 NE 24 32 13 17 1004.6 1003.9 0.0
24/10:53am 37.8 32.3 5.7 14 17.7 NE 24 30 13 16 1004.7 1004.0 0.0
24/10:30am 36.7 32.0 5.9 15 17.0 NE 20 30 11 16 1004.9 1004.2 0.0
24/10:00am 34.8 29.9 5.3 16 15.9 NE 20 30 11 16 1005.0 1004.3 0.0
24/09:30am 33.5 29.0 4.2 16 15.5 NE 17 22 9 12 1005.0 1004.3 0.0
24/09:16am 32.8 28.6 3.7 16 15.1 NE 15 19 8 10 1005.1 1004.4 0.0
24/09:04am 32.2 27.9 3.2 16 14.9 NE 15 20 8 11 1005.1 1004.4 0.0
24/09:00am 32.0 27.3 3.1 16 14.8 NE 17 20 9 11 1005.1 1004.4 0.0
24/08:30am 30.9 26.3 1.3 15 14.7 NE 15 19 8 10 1005.1 1004.4 0.0
24/08:10am 30.5 25.7 0.0 14 14.7 NE 15 20 8 11 1005.0 1004.3 0.0
24/08:02am 30.4 25.2 -0.1 14 14.6 NE 17 20 9 11 1004.8 1004.1 0.0
24/08:00am 30.4 25.2 -0.1 14 14.6 NE 17 20 9 11 1004.8 1004.1 0.0
24/07:30am 29.4 25.0 0.1 15 14.1 NE 13 17 7 9 1004.6 1003.9 0.0
24/07:28am 29.3 24.7 -0.9 14 14.2 NE 13 17 7 9 1004.6 1003.9 0.0
24/07:00am 28.4 23.3 -1.6 14 13.8 NE 15 17 8 9 1004.4 1003.7 0.0
24/06:30am 28.3 23.6 -1.7 14 13.8 NE 13 15 7 8 1004.2 1003.5 0.0
24/06:00am 29.2 24.1 -2.0 13 14.4 NE 15 17 8 9 1003.9 1003.2 0.0
24/05:30am 29.3 24.6 -1.9 13 14.5 NNE 13 20 7 11 1003.6 1002.9 0.0
24/05:00am 29.6 25.3 -1.7 13 14.5 NNE 11 13 6 7 1003.5 1002.8 0.0
24/04:30am 30.1 25.3 -2.4 12 15.0 NE 13 15 7 8 1003.5 1002.8 0.0
24/04:00am 31.3 25.6 -3.9 10 15.9 NE 17 20 9 11 1003.6 1002.9 0.0
24/03:30am 32.8 26.8 -2.8 10 16.7 NE 19 24 10 13 1003.7 1003.0 0.0
24/03:00am 33.5 27.2 -3.7 9 17.2 NE 20 26 11 14 1004.0 1003.3 0.0
24/02:30am 33.4 27.1 -3.7 9 17.2 NE 20 26 11 14 1004.3 1003.6 0.0
24/02:00am 32.1 26.5 -3.3 10 16.3 NE 17 22 9 12 1004.5 1003.8 0.0
24/01:30am 30.7 26.2 -3.1 11 15.5 NE 11 11 6 6 1004.6 1003.9 0.0
24/01:00am 31.4 27.4 -2.6 11 15.7 NNE 9 11 5 6 1004.7 1004.0 0.0
24/12:30am 31.9 27.9 -2.2 11 16.0 NE 9 9 5 5 1004.9 1004.2 0.0
24/12:00am 33.1 28.7 -2.6 10 16.8 NNE 11 13 6 7 1005.1 1004.4 0.0
 
Date/Time
CDT
Temp
°C
App
Temp
°C
Dew
Point
°C
Rel
Hum
%
Delta-T
°C
Wind Press
QNH
hPa
Press
MSL
hPa
Rain since
9am
mm
Dir  Spd
km/h
Gust
km/h
Spd
kts
Gust
kts
23/11:30pm 34.2 29.3 -3.2 9 17.6 NNE 13 13 7 7 1005.2 1004.5 0.0
23/11:00pm 34.9 29.9 -4.2 8 18.1 NNE 13 15 7 8 1005.1 1004.4 0.0
23/10:30pm 35.6 30.7 -3.7 8 18.5 N 13 17 7 9 1005.0 1004.3 0.0
23/10:00pm 36.3 30.7 -3.2 8 18.8 NE 17 20 9 11 1004.8 1004.1 0.0
23/09:30pm 36.6 30.8 -4.7 7 19.3 NE 17 19 9 10 1004.4 1003.7 0.0
23/09:00pm 37.9 32.2 -3.8 7 19.9 NE 17 24 9 13 1004.1 1003.4 0.0
23/08:30pm 39.1 32.7 -5.0 6 20.8 NE 20 28 11 15 1003.9 1003.2 0.0
23/08:00pm 40.4 32.9 -4.1 6 21.4 NE 26 33 14 18 1003.6 1002.9 0.0
23/07:30pm 41.2 34.2 -3.5 6 21.9 NNE 24 30 13 16 1003.6 1002.9 0.0
23/07:00pm 41.5 36.6 -3.3 6 22.0 NNE 13 20 7 11 1003.3 1002.6 0.0
23/06:30pm 42.4 37.6 -2.7 6 22.5 ESE 13 19 7 10 1003.1 1002.4 0.0
23/06:00pm 42.8 38.0 -2.4 6 22.8 ENE 13 24 7 13 1003.2 1002.5 0.0
23/05:30pm 42.1 38.0 -2.9 6 22.4 SE 9 13 5 7 1003.4 1002.7 0.0
23/05:00pm 42.4 38.0 -2.7 6 22.5 SE 11 20 6 11 1003.6 1002.9 0.0
23/04:30pm 42.6 37.8 -2.5 6 22.6 NE 13 22 7 12 1003.9 1003.2 0.0
23/04:00pm 42.8 39.2 -2.4 6 22.7 NNW 7 13 4 7 1004.1 1003.4 0.0
23/03:30pm 42.2 37.8 -2.8 6 22.4 NW 11 20 6 11 1004.4 1003.7 0.0
23/03:00pm 41.7 37.2 -3.1 6 22.2 NNE 11 22 6 12 1004.8 1004.1 0.0
23/02:30pm 41.5 37.0 -3.3 6 22.1 N 11 20 6 11 1005.2 1004.5 0.0
23/02:00pm 40.9 36.3 -3.7 6 21.7 W 11 19 6 10 1005.7 1005.0 0.0
23/01:30pm 40.8 34.7 -3.8 6 21.7 NW 19 28 10 15 1006.2 1005.5 0.0
23/01:00pm 40.5 36.2 -1.9 7 21.1 NW 11 28 6 15 1006.5 1005.8 0.0
23/12:30pm 39.1 34.6 -2.9 7 20.5 N 11 20 6 11 1006.8 1006.1 0.0
23/12:00pm 38.7 33.8 -3.2 7 20.3 N 13 19 7 10 1007.2 1006.5 0.0
23/11:30am 37.1 32.5 -4.4 7 19.5 NE 11 22 6 12 1007.5 1006.8 0.0
23/11:00am 35.9 31.7 -3.5 8 18.6 NE 9 15 5 8 1007.9 1007.2 0.0
23/10:30am 34.9 29.5 -4.2 8 18.1 ENE 15 20 8 11 1008.0 1007.3 0.0
23/10:00am 33.8 28.0 -5.0 8 17.6 ENE 17 22 9 12 1007.9 1007.2 0.0
23/09:30am 33.0 26.5 -5.6 8 17.2 ENE 20 26 11 14 1007.9 1007.2 0.0
23/09:00am 32.3 25.9 -4.6 9 16.7 E 20 30 11 16 1007.9 1007.2 0.0
23/08:30am 31.3 24.9 -5.3 9 16.2 E 20 30 11 16 1007.8 1007.1 0.0
23/08:11am 30.5 24.1 -4.5 10 15.6 ESE 20 30 11 16 1007.9 1007.2 0.0
23/08:00am 30.0 23.6 -4.9 10 15.4 ESE 20 28 11 15 1007.9 1007.2 0.0
23/07:54am 29.6 23.7 -5.2 10 15.2 ESE 17 24 9 13 1007.9 1007.2 0.0
23/07:30am 28.0 22.7 -4.0 12 14.1 ESE 15 19 8 10 1007.7 1007.0 0.0
23/07:00am 25.3 20.2 -2.3 16 12.3 SE 15 19 8 10 1007.4 1006.7 0.0
23/06:30am 23.9 19.7 -1.1 19 11.3 SE 11 13 6 7 1007.2 1006.5 0.0
23/06:00am 24.7 20.5 -1.2 18 11.7 SSE 11 13 6 7 1007.0 1006.3 0.0
23/05:30am 25.4 20.9 -0.6 18 12.0 SSE 13 17 7 9 1006.7 1006.0 0.0
23/05:00am 26.2 21.6 -0.8 17 12.4 SE 13 19 7 10 1006.7 1006.0 0.0
23/04:30am 26.5 22.0 -0.5 17 12.5 SE 13 17 7 9 1006.7 1006.0 0.0
23/04:00am 27.3 22.0 -0.7 16 13.0 SE 17 20 9 11 1006.7 1006.0 0.0
23/03:30am 27.3 22.4 -0.7 16 13.0 SE 15 17 8 9 1006.7 1006.0 0.0
23/03:00am 27.9 22.8 -2.0 14 13.7 SE 15 20 8 11 1006.8 1006.1 0.0
23/02:30am 28.3 23.1 -2.7 13 14.0 SE 15 19 8 10 1007.0 1006.3 0.0
23/02:00am 28.9 23.6 -3.3 12 14.5 SE 15 17 8 9 1007.4 1006.7 0.0
23/01:30am 29.4 24.0 -4.1 11 14.9 SE 15 20 8 11 1007.5 1006.8 0.0
23/01:00am 28.5 23.6 -3.6 12 14.3 SE 13 15 7 8 1007.5 1006.8 0.0
23/12:30am 29.2 25.0 -4.3 11 14.8 SE 9 11 5 6 1007.6 1006.9 0.0
23/12:00am 30.8 25.8 -4.3 10 15.8 SE 13 13 7 7 1007.6 1006.9 0.0
 
Date/Time
CDT
Temp
°C
App
Temp
°C
Dew
Point
°C
Rel
Hum
%
Delta-T
°C
Wind Press
QNH
hPa
Press
MSL
hPa
Rain since
9am
mm
Dir  Spd
km/h
Gust
km/h
Spd
kts
Gust
kts
22/11:30pm 32.3 27.0 -3.2 10 16.4 SE 15 17 8 9 1007.6 1006.9 0.0
22/11:00pm 31.6 27.0 -1.2 12 15.6 SE 13 19 7 10 1007.5 1006.8 0.0
22/10:30pm 32.6 28.7 -1.7 11 16.3 SSE 9 11 5 6 1007.2 1006.5 0.0
22/10:00pm 33.4 29.4 -2.3 10 16.9 S 9 11 5 6 1007.1 1006.4 0.0
22/09:30pm 34.9 30.5 -2.6 9 17.9 S 11 15 6 8 1006.9 1006.2 0.0
22/09:00pm 36.5 31.5 -1.4 9 18.6 SSE 15 22 8 12 1006.7 1006.0 0.0
22/08:30pm 37.5 31.2 -0.7 9 19.1 SSE 22 30 12 16 1006.6 1005.9 0.0
22/08:00pm 38.4 32.0 -1.6 8 19.8 SSE 22 32 12 17 1006.2 1005.5 0.0
22/07:30pm 39.2 32.9 -1.1 8 20.2 S 22 30 12 16 1006.0 1005.3 0.0
22/07:00pm 39.7 33.1 -0.7 8 20.4 S 24 32 13 17 1005.8 1005.1 0.0
22/06:36pm 39.8 32.4 -0.6 8 20.4 S 28 46 15 25 1005.7 1005.0 0.0
22/06:30pm 40.1 33.5 -0.4 8 20.6 S 24 46 13 25 1005.8 1005.1 0.0
22/06:00pm 40.9 34.4 0.2 8 21.0 SSW 24 39 13 21 1005.6 1004.9 0.0
22/05:30pm 40.9 35.1 0.2 8 21.0 S 20 32 11 17 1005.5 1004.8 0.0
22/05:00pm 40.8 35.0 0.1 8 20.9 SSW 20 35 11 19 1005.7 1005.0 0.0
22/04:30pm 41.7 35.7 0.8 8 21.4 SW 22 32 12 17 1006.0 1005.3 0.0
22/04:00pm 41.4 37.0 0.5 8 21.2 S 13 24 7 13 1006.4 1005.7 0.0
22/03:30pm 40.0 35.5 -0.5 8 20.6 SW 13 24 7 13 1006.7 1006.0 0.0
22/03:00pm 40.6 35.0 0.0 8 20.9 S 19 32 10 17 1007.0 1006.3 0.0
22/02:30pm 39.6 33.9 -0.8 8 20.4 SSW 19 32 10 17 1007.5 1006.8 0.0
22/02:00pm 39.7 35.0 0.9 9 20.1 WNW 15 22 8 12 1007.7 1007.0 0.0
22/01:30pm 39.1 34.7 0.5 9 19.8 WSW 13 20 7 11 1008.1 1007.4 0.0
22/01:00pm 40.0 35.1 -0.5 8 20.5 SW 15 28 8 15 1008.4 1007.7 0.0
22/12:30pm 38.0 33.7 -1.9 8 19.6 WSW 11 17 6 9 1008.7 1008.1 0.0
22/12:00pm 37.1 33.6 -1.0 9 18.9 W 7 20 4 11 1009.0 1008.4 0.0
22/11:30am 35.7 31.7 -2.0 9 18.2 NNW 9 15 5 8 1009.3 1008.7 0.0
22/11:00am 35.4 31.8 -2.3 9 18.1 E 7 15 4 8 1009.4 1008.8 0.0
22/10:30am 33.3 30.2 -2.4 10 16.9 NW 4 7 2 4 1009.5 1008.9 0.0
22/10:00am 32.8 29.5 -1.5 11 16.4 E 6 9 3 5 1009.6 1009.0 0.0
22/09:30am 31.2 27.7 1.5 15 14.8 SE 9 11 5 6 1009.6 1009.0 0.0
22/09:00am 29.5 25.3 1.9 17 13.7 SE 13 15 7 8 1009.6 1009.0 0.0
22/08:30am 28.0 23.1 2.2 19 12.7 SSE 17 19 9 10 1009.6 1009.0 0.0
22/08:00am 25.7 21.4 1.1 20 11.7 SSW 13 17 7 9 1009.4 1008.8 0.0
22/07:32am 22.6 20.8 1.0 24 10.0 CALM 0 0 0 0 1008.8 1008.2 0.0
22/07:30am 22.5 20.7 1.5 25 9.8 CALM 0 0 0 0 1008.8 1008.2 0.0
22/07:05am 21.8 20.0 1.5 26 9.4 CALM 0 0 0 0 1008.8 1008.2 0.0
22/07:00am 21.8 19.7 1.5 26 9.4 SSE 2 6 1 3 1008.8 1008.2 0.0
22/06:30am 21.0 16.7 0.8 26 9.2 SSE 13 15 7 8 1008.8 1008.2 0.0
22/06:00am 22.5 19.5 0.9 24 10.0 SSE 6 13 3 7 1008.6 1007.9 0.0
22/05:30am 23.4 19.9 1.1 23 10.4 NNE 9 9 5 5 1008.5 1007.8 0.0
22/05:00am 24.5 20.3 1.4 22 10.9 NNE 13 19 7 10 1008.9 1008.3 0.0
22/04:30am 24.8 21.3 1.0 21 11.2 ESE 9 13 5 7 1008.6 1007.9 0.0
22/04:00am 25.6 21.7 1.0 20 11.6 SE 11 13 6 7 1008.5 1007.8 0.0
22/03:30am 26.6 22.2 0.4 18 12.4 SSE 13 15 7 8 1008.6 1007.9 0.0
22/03:00am 27.6 22.8 0.4 17 12.9 SSE 15 19 8 10 1008.4 1007.7 0.0
22/02:30am 28.4 23.3 1.0 17 13.2 SSE 17 22 9 12 1008.6 1007.9 0.0
22/02:00am 28.4 24.1 1.0 17 13.2 SSE 13 17 7 9 1008.7 1008.1 0.0
22/01:30am 28.9 24.5 -2.3 13 14.3 SE 11 17 6 9 1008.6 1007.9 0.0
22/01:00am 30.4 26.8 -2.2 12 15.1 W 7 15 4 8 1008.4 1007.7 0.0
22/12:30am 27.6 25.1 -1.3 15 13.3 NNE 2 6 1 3 1008.1 1007.4 0.0
22/12:00am 30.2 26.3 -1.2 13 14.8 NNE 9 11 5 6 1007.9 1007.2 0.0
 
Date/Time
CDT
Temp
°C
App
Temp
°C
Dew
Point
°C
Rel
Hum
%
Delta-T
°C
Wind Press
QNH
hPa
Press
MSL
hPa
Rain since
9am
mm
Dir  Spd
km/h
Gust
km/h
Spd
kts
Gust
kts
21/11:30pm 30.8 26.5 -1.9 12 15.3 NE 11 13 6 7 1008.0 1007.3 0.0
21/11:00pm 30.9 26.2 -1.8 12 15.3 ENE 13 13 7 7 1008.1 1007.4 0.0
21/10:30pm 30.6 27.0 -2.0 12 15.2 ESE 7 9 4 5 1008.1 1007.4 0.0
21/10:00pm 32.7 28.8 -1.6 11 16.3 SSE 9 11 5 6 1008.0 1007.3 0.0
21/09:30pm 33.8 29.5 -2.0 10 17.1 SE 11 11 6 6 1007.9 1007.2 0.0
21/09:00pm 35.4 31.0 -2.3 9 18.1 SSE 11 13 6 7 1007.7 1007.0 0.0

Other formats

Comma delimited format used in spreadsheet applications
http://www.bom.gov.au/fwo/IDS60801/IDS60801.95658.axf

JavaScript Object Notation format (JSON) in row-major order
http://www.bom.gov.au/fwo/IDS60801/IDS60801.95658.json

Data quality

Most of these data are generated automatically and are frequently updated. Quality checks on data are not normally performed. It is possible for incorrect values to appear. Refer to information at About Latest Weather Observations and please check the disclaimer before using these data.